LAX weather

Los Angeles International Airport
Los Angeles, California, United States

Public forecast

Using degrees Fahrenheit for public forecast. Weather courtesy of forecast.io.

METAR (pilot weather report)

Retrieved 2017/09/22 00:53 UTC (44 minutes ago):

KLAX 220053Z 25013KT 10SM FEW022 FEW070 19/13 A2981 RMK AO2 SLP094 T01940133

TAF (pilot weather forecast)

Forecast is more than 12 hours old.

Retrieved 2017/09/21 00:45 UTC (1 day ago):

TAF KLAX 212340Z 2200/2306 27014KT P6SM SKC FM220500 25008KT P6SM SKC FM220900 VRB03KT P6SM SCT025 FM221800 26010KT P6SM SCT025 FM222100 26015KT P6SM SKC FM230400 26009KT P6SM SKC